sensor_id;sensor_type;location;lat;lon;timestamp;pressure;altitude;pressure_sealevel;temperature;humidity
49645;BME280;36494;50.730;-1.932;2023-04-30T00:02:15;101670.49;;;8.70;100.00
49645;BME280;36494;50.730;-1.932;2023-04-30T00:04:40;101669.91;;;8.68;100.00
49645;BME280;36494;50.730;-1.932;2023-04-30T00:07:06;101665.12;;;8.65;100.00
49645;BME280;36494;50.730;-1.932;2023-04-30T00:09:32;101663.37;;;8.63;100.00
49645;BME280;36494;50.730;-1.932;2023-04-30T00:11:57;101660.91;;;8.61;100.00
49645;BME280;36494;50.730;-1.932;2023-04-30T00:14:22;101660.57;;;8.60;100.00
49645;BME280;36494;50.730;-1.932;2023-04-30T00:16:47;101657.84;;;8.57;100.00
49645;BME280;36494;50.730;-1.932;2023-04-30T00:19:13;101657.75;;;8.56;100.00
49645;BME280;36494;50.730;-1.932;2023-04-30T00:21:39;101652.13;;;8.53;100.00
49645;BME280;36494;50.730;-1.932;2023-04-30T00:24:05;101652.16;;;8.53;100.00
49645;BME280;36494;50.730;-1.932;2023-04-30T00:26:30;101650.11;;;8.51;100.00
49645;BME280;36494;50.730;-1.932;2023-04-30T00:28:55;101649.77;;;8.48;100.00
49645;BME280;36494;50.730;-1.932;2023-04-30T00:31:21;101649.47;;;8.44;100.00
49645;BME280;36494;50.730;-1.932;2023-04-30T00:33:47;101646.89;;;8.41;100.00
49645;BME280;36494;50.730;-1.932;2023-04-30T00:36:12;101644.13;;;8.41;100.00
49645;BME280;36494;50.730;-1.932;2023-04-30T00:38:38;101644.52;;;8.38;100.00
49645;BME280;36494;50.730;-1.932;2023-04-30T00:41:04;101640.52;;;8.36;100.00
49645;BME280;36494;50.730;-1.932;2023-04-30T00:43:29;101635.41;;;8.34;100.00
49645;BME280;36494;50.730;-1.932;2023-04-30T00:45:54;101634.07;;;8.32;100.00
49645;BME280;36494;50.730;-1.932;2023-04-30T00:48:19;101633.58;;;8.32;100.00
49645;BME280;36494;50.730;-1.932;2023-04-30T00:50:44;101628.80;;;8.30;100.00
49645;BME280;36494;50.730;-1.932;2023-04-30T00:53:10;101628.62;;;8.28;100.00
49645;BME280;36494;50.730;-1.932;2023-04-30T00:55:35;101628.47;;;8.27;100.00
49645;BME280;36494;50.730;-1.932;2023-04-30T00:58:00;101628.28;;;8.25;100.00
49645;BME280;36494;50.730;-1.932;2023-04-30T01:00:26;101624.67;;;8.20;100.00
49645;BME280;36494;50.730;-1.932;2023-04-30T01:02:51;101625.46;;;8.19;100.00
49645;BME280;36494;50.730;-1.932;2023-04-30T01:05:17;101623.41;;;8.17;100.00
49645;BME280;36494;50.730;-1.932;2023-04-30T01:07:42;101623.33;;;8.14;100.00
49645;BME280;36494;50.730;-1.932;2023-04-30T01:10:08;101623.06;;;8.13;100.00
49645;BME280;36494;50.730;-1.932;2023-04-30T01:12:36;101624.93;;;8.10;100.00
49645;BME280;36494;50.730;-1.932;2023-04-30T01:15:05;101625.89;;;8.09;100.00
49645;BME280;36494;50.730;-1.932;2023-04-30T01:17:32;101625.56;;;8.07;100.00
49645;BME280;36494;50.730;-1.932;2023-04-30T01:19:49;101623.71;;;8.04;100.00
49645;BME280;36494;50.730;-1.932;2023-04-30T01:22:31;101621.62;;;8.02;100.00
49645;BME280;36494;50.730;-1.932;2023-04-30T01:24:59;101623.25;;;8.00;100.00
49645;BME280;36494;50.730;-1.932;2023-04-30T01:27:12;101624.66;;;7.99;100.00
49645;BME280;36494;50.730;-1.932;2023-04-30T01:29:31;101625.74;;;7.97;100.00
49645;BME280;36494;50.730;-1.932;2023-04-30T01:31:57;101624.50;;;7.95;100.00
49645;BME280;36494;50.730;-1.932;2023-04-30T01:34:22;101627.06;;;7.96;100.00
49645;BME280;36494;50.730;-1.932;2023-04-30T01:36:55;101627.02;;;7.92;100.00
49645;BME280;36494;50.730;-1.932;2023-04-30T01:39:23;101631.55;;;7.89;100.00
49645;BME280;36494;50.730;-1.932;2023-04-30T01:41:46;101634.53;;;7.85;100.00
49645;BME280;36494;50.730;-1.932;2023-04-30T01:44:12;101635.88;;;7.83;100.00
49645;BME280;36494;50.730;-1.932;2023-04-30T01:46:30;101635.80;;;7.79;100.00
49645;BME280;36494;50.730;-1.932;2023-04-30T01:49:02;101635.64;;;7.77;100.00
49645;BME280;36494;50.730;-1.932;2023-04-30T01:51:29;101638.14;;;7.73;100.00
49645;BME280;36494;50.730;-1.932;2023-04-30T01:53:46;101637.54;;;7.74;100.00
49645;BME280;36494;50.730;-1.932;2023-04-30T01:56:17;101639.36;;;7.72;100.00
49645;BME280;36494;50.730;-1.932;2023-04-30T01:58:37;101639.42;;;7.71;100.00
49645;BME280;36494;50.730;-1.932;2023-04-30T02:01:02;101639.70;;;7.70;100.00
49645;BME280;36494;50.730;-1.932;2023-04-30T02:03:27;101635.53;;;7.66;100.00
49645;BME280;36494;50.730;-1.932;2023-04-30T02:05:53;101634.58;;;7.64;100.00
49645;BME280;36494;50.730;-1.932;2023-04-30T02:08:18;101634.09;;;7.61;100.00
49645;BME280;36494;50.730;-1.932;2023-04-30T02:10:44;101631.69;;;7.57;100.00
49645;BME280;36494;50.730;-1.932;2023-04-30T02:13:09;101629.44;;;7.55;100.00
49645;BME280;36494;50.730;-1.932;2023-04-30T02:15:34;101629.85;;;7.54;100.00
49645;BME280;36494;50.730;-1.932;2023-04-30T02:18:00;101625.96;;;7.52;100.00
49645;BME280;36494;50.730;-1.932;2023-04-30T02:20:25;101624.35;;;7.50;100.00
49645;BME280;36494;50.730;-1.932;2023-04-30T02:22:51;101625.33;;;7.50;100.00
49645;BME280;36494;50.730;-1.932;2023-04-30T02:25:17;101626.24;;;7.47;100.00
49645;BME280;36494;50.730;-1.932;2023-04-30T02:27:41;101631.67;;;7.46;100.00
49645;BME280;36494;50.730;-1.932;2023-04-30T02:30:07;101631.04;;;7.44;100.00
49645;BME280;36494;50.730;-1.932;2023-04-30T02:32:32;101629.28;;;7.43;100.00
49645;BME280;36494;50.730;-1.932;2023-04-30T02:34:58;101629.71;;;7.42;100.00
49645;BME280;36494;50.730;-1.932;2023-04-30T02:37:23;101624.88;;;7.41;100.00
49645;BME280;36494;50.730;-1.932;2023-04-30T02:39:48;101624.70;;;7.38;100.00
49645;BME280;36494;50.730;-1.932;2023-04-30T02:42:14;101625.88;;;7.37;100.00
49645;BME280;36494;50.730;-1.932;2023-04-30T02:44:39;101624.82;;;7.37;100.00
49645;BME280;36494;50.730;-1.932;2023-04-30T02:47:04;101622.42;;;7.38;100.00
49645;BME280;36494;50.730;-1.932;2023-04-30T02:49:30;101617.55;;;7.36;100.00
49645;BME280;36494;50.730;-1.932;2023-04-30T02:51:56;101613.78;;;7.37;100.00
49645;BME280;36494;50.730;-1.932;2023-04-30T02:54:21;101610.86;;;7.35;100.00
49645;BME280;36494;50.730;-1.932;2023-04-30T02:56:47;101610.17;;;7.35;100.00
49645;BME280;36494;50.730;-1.932;2023-04-30T02:59:13;101608.58;;;7.34;100.00
49645;BME280;36494;50.730;-1.932;2023-04-30T03:01:38;101608.16;;;7.33;100.00
49645;BME280;36494;50.730;-1.932;2023-04-30T03:04:03;101606.33;;;7.32;100.00
49645;BME280;36494;50.730;-1.932;2023-04-30T03:06:28;101606.76;;;7.31;100.00
49645;BME280;36494;50.730;-1.932;2023-04-30T03:08:54;101605.14;;;7.28;100.00
49645;BME280;36494;50.730;-1.932;2023-04-30T03:11:20;101605.24;;;7.27;100.00
49645;BME280;36494;50.730;-1.932;2023-04-30T03:13:47;101600.43;;;7.26;100.00
49645;BME280;36494;50.730;-1.932;2023-04-30T03:16:12;101599.04;;;7.26;100.00
49645;BME280;36494;50.730;-1.932;2023-04-30T03:18:37;101599.42;;;7.26;100.00
49645;BME280;36494;50.730;-1.932;2023-04-30T03:21:02;101598.86;;;7.23;100.00
49645;BME280;36494;50.730;-1.932;2023-04-30T03:23:28;101603.97;;;7.22;100.00
49645;BME280;36494;50.730;-1.932;2023-04-30T03:25:53;101605.15;;;7.21;100.00
49645;BME280;36494;50.730;-1.932;2023-04-30T03:28:18;101608.33;;;7.20;100.00
49645;BME280;36494;50.730;-1.932;2023-04-30T03:30:43;101608.42;;;7.17;100.00
49645;BME280;36494;50.730;-1.932;2023-04-30T03:33:09;101606.93;;;7.16;100.00
49645;BME280;36494;50.730;-1.932;2023-04-30T03:35:35;101603.71;;;7.16;100.00
49645;BME280;36494;50.730;-1.932;2023-04-30T03:38:00;101602.86;;;7.15;100.00
49645;BME280;36494;50.730;-1.932;2023-04-30T03:40:26;101597.93;;;7.15;100.00
49645;BME280;36494;50.730;-1.932;2023-04-30T03:42:51;101598.74;;;7.14;100.00
49645;BME280;36494;50.730;-1.932;2023-04-30T03:45:16;101602.61;;;7.12;100.00
49645;BME280;36494;50.730;-1.932;2023-04-30T03:47:42;101596.50;;;7.11;100.00
49645;BME280;36494;50.730;-1.932;2023-04-30T03:50:08;101596.35;;;7.13;100.00
49645;BME280;36494;50.730;-1.932;2023-04-30T03:52:33;101597.27;;;7.11;100.00
49645;BME280;36494;50.730;-1.932;2023-04-30T03:54:58;101601.23;;;7.12;100.00
49645;BME280;36494;50.730;-1.932;2023-04-30T03:57:24;101599.86;;;7.11;100.00
49645;BME280;36494;50.730;-1.932;2023-04-30T03:59:49;101600.90;;;7.10;100.00
49645;BME280;36494;50.730;-1.932;2023-04-30T04:02:14;101598.45;;;7.09;100.00
49645;BME280;36494;50.730;-1.932;2023-04-30T04:04:40;101600.91;;;7.08;100.00
49645;BME280;36494;50.730;-1.932;2023-04-30T04:07:05;101599.18;;;7.07;100.00
49645;BME280;36494;50.730;-1.932;2023-04-30T04:09:30;101599.43;;;7.06;100.00
49645;BME280;36494;50.730;-1.932;2023-04-30T04:11:56;101600.15;;;7.05;100.00
49645;BME280;36494;50.730;-1.932;2023-04-30T04:14:21;101595.54;;;7.06;100.00
49645;BME280;36494;50.730;-1.932;2023-04-30T04:16:46;101598.20;;;7.05;100.00
49645;BME280;36494;50.730;-1.932;2023-04-30T04:19:12;101597.30;;;7.06;100.00
49645;BME280;36494;50.730;-1.932;2023-04-30T04:21:38;101597.35;;;7.07;100.00
49645;BME280;36494;50.730;-1.932;2023-04-30T04:24:03;101594.20;;;7.05;100.00
49645;BME280;36494;50.730;-1.932;2023-04-30T04:26:28;101595.38;;;7.04;100.00
49645;BME280;36494;50.730;-1.932;2023-04-30T04:28:53;101595.87;;;7.03;100.00
49645;BME280;36494;50.730;-1.932;2023-04-30T04:31:18;101596.54;;;7.03;100.00
49645;BME280;36494;50.730;-1.932;2023-04-30T04:33:44;101595.35;;;7.03;100.00
49645;BME280;36494;50.730;-1.932;2023-04-30T04:36:09;101589.62;;;7.02;100.00
49645;BME280;36494;50.730;-1.932;2023-04-30T04:38:34;101588.38;;;7.00;100.00
49645;BME280;36494;50.730;-1.932;2023-04-30T04:40:59;101587.44;;;7.01;100.00
49645;BME280;36494;50.730;-1.932;2023-04-30T04:43:25;101593.12;;;7.00;100.00
49645;BME280;36494;50.730;-1.932;2023-04-30T04:45:51;101594.24;;;6.97;100.00
49645;BME280;36494;50.730;-1.932;2023-04-30T04:48:16;101597.20;;;6.95;100.00
49645;BME280;36494;50.730;-1.932;2023-04-30T04:50:41;101596.61;;;6.93;100.00
49645;BME280;36494;50.730;-1.932;2023-04-30T04:53:07;101596.34;;;6.92;100.00
49645;BME280;36494;50.730;-1.932;2023-04-30T04:55:32;101596.24;;;6.92;100.00
49645;BME280;36494;50.730;-1.932;2023-04-30T04:57:58;101596.94;;;6.91;100.00
49645;BME280;36494;50.730;-1.932;2023-04-30T05:00:23;101597.78;;;6.91;100.00
49645;BME280;36494;50.730;-1.932;2023-04-30T05:02:48;101595.10;;;6.92;100.00
49645;BME280;36494;50.730;-1.932;2023-04-30T05:05:14;101593.55;;;6.94;100.00
49645;BME280;36494;50.730;-1.932;2023-04-30T05:07:39;101594.25;;;6.97;100.00
49645;BME280;36494;50.730;-1.932;2023-04-30T05:10:06;101594.90;;;6.97;100.00
49645;BME280;36494;50.730;-1.932;2023-04-30T05:12:30;101597.24;;;7.00;100.00
49645;BME280;36494;50.730;-1.932;2023-04-30T05:14:55;101596.50;;;7.02;100.00
49645;BME280;36494;50.730;-1.932;2023-04-30T05:17:20;101596.68;;;7.04;100.00
49645;BME280;36494;50.730;-1.932;2023-04-30T05:19:46;101599.21;;;7.08;100.00
49645;BME280;36494;50.730;-1.932;2023-04-30T05:22:11;101599.02;;;7.11;100.00
49645;BME280;36494;50.730;-1.932;2023-04-30T05:24:37;101601.35;;;7.13;100.00
49645;BME280;36494;50.730;-1.932;2023-04-30T05:27:02;101603.18;;;7.17;100.00
49645;BME280;36494;50.730;-1.932;2023-04-30T05:29:27;101606.49;;;7.18;100.00
49645;BME280;36494;50.730;-1.932;2023-04-30T05:31:53;101612.17;;;7.19;100.00
49645;BME280;36494;50.730;-1.932;2023-04-30T05:34:18;101616.46;;;7.22;100.00
49645;BME280;36494;50.730;-1.932;2023-04-30T05:36:44;101615.93;;;7.23;100.00
49645;BME280;36494;50.730;-1.932;2023-04-30T05:39:09;101619.29;;;7.27;100.00
49645;BME280;36494;50.730;-1.932;2023-04-30T05:41:35;101618.45;;;7.29;100.00
49645;BME280;36494;50.730;-1.932;2023-04-30T05:44:00;101620.31;;;7.32;100.00
49645;BME280;36494;50.730;-1.932;2023-04-30T05:46:26;101618.47;;;7.35;100.00
49645;BME280;36494;50.730;-1.932;2023-04-30T05:48:51;101615.65;;;7.39;100.00
49645;BME280;36494;50.730;-1.932;2023-04-30T05:51:16;101615.64;;;7.43;100.00
49645;BME280;36494;50.730;-1.932;2023-04-30T05:53:42;101617.73;;;7.47;100.00
49645;BME280;36494;50.730;-1.932;2023-04-30T05:56:08;101616.48;;;7.50;100.00
49645;BME280;36494;50.730;-1.932;2023-04-30T05:58:33;101615.21;;;7.54;100.00
49645;BME280;36494;50.730;-1.932;2023-04-30T06:00:59;101614.94;;;7.59;100.00
49645;BME280;36494;50.730;-1.932;2023-04-30T06:03:25;101617.36;;;7.63;100.00
49645;BME280;36494;50.730;-1.932;2023-04-30T06:05:50;101620.31;;;7.69;100.00
49645;BME280;36494;50.730;-1.932;2023-04-30T06:08:15;101618.13;;;7.74;100.00
49645;BME280;36494;50.730;-1.932;2023-04-30T06:10:41;101613.45;;;7.79;100.00
49645;BME280;36494;50.730;-1.932;2023-04-30T06:13:06;101617.66;;;7.85;100.00
49645;BME280;36494;50.730;-1.932;2023-04-30T06:15:32;101618.64;;;7.92;100.00
49645;BME280;36494;50.730;-1.932;2023-04-30T06:17:57;101619.00;;;8.00;100.00
49645;BME280;36494;50.730;-1.932;2023-04-30T06:20:23;101619.81;;;8.06;100.00
49645;BME280;36494;50.730;-1.932;2023-04-30T06:22:48;101621.35;;;8.13;100.00
49645;BME280;36494;50.730;-1.932;2023-04-30T06:25:15;101623.22;;;8.18;100.00
49645;BME280;36494;50.730;-1.932;2023-04-30T06:27:40;101622.80;;;8.26;100.00
49645;BME280;36494;50.730;-1.932;2023-04-30T06:30:06;101625.29;;;8.36;100.00
49645;BME280;36494;50.730;-1.932;2023-04-30T06:32:31;101626.33;;;8.43;100.00
49645;BME280;36494;50.730;-1.932;2023-04-30T06:34:57;101629.19;;;8.50;100.00
49645;BME280;36494;50.730;-1.932;2023-04-30T06:37:22;101629.32;;;8.58;100.00
49645;BME280;36494;50.730;-1.932;2023-04-30T06:39:48;101629.92;;;8.66;100.00
49645;BME280;36494;50.730;-1.932;2023-04-30T06:42:14;101629.71;;;8.76;100.00
49645;BME280;36494;50.730;-1.932;2023-04-30T06:44:39;101632.29;;;8.96;100.00
49645;BME280;36494;50.730;-1.932;2023-04-30T06:47:04;101635.68;;;9.12;100.00
49645;BME280;36494;50.730;-1.932;2023-04-30T06:49:30;101638.07;;;9.24;100.00
49645;BME280;36494;50.730;-1.932;2023-04-30T06:51:56;101642.60;;;9.34;100.00
49645;BME280;36494;50.730;-1.932;2023-04-30T06:54:21;101642.92;;;9.39;100.00
49645;BME280;36494;50.730;-1.932;2023-04-30T06:56:47;101638.22;;;9.49;100.00
49645;BME280;36494;50.730;-1.932;2023-04-30T06:59:12;101639.22;;;9.57;100.00
49645;BME280;36494;50.730;-1.932;2023-04-30T07:01:37;101632.94;;;9.61;100.00
49645;BME280;36494;50.730;-1.932;2023-04-30T07:04:03;101632.74;;;9.68;100.00
49645;BME280;36494;50.730;-1.932;2023-04-30T07:06:29;101634.69;;;9.67;100.00
49645;BME280;36494;50.730;-1.932;2023-04-30T07:08:54;101634.71;;;9.74;100.00
49645;BME280;36494;50.730;-1.932;2023-04-30T07:11:19;101637.19;;;9.82;100.00
49645;BME280;36494;50.730;-1.932;2023-04-30T07:13:45;101638.90;;;9.81;100.00
49645;BME280;36494;50.730;-1.932;2023-04-30T07:16:10;101634.46;;;9.86;100.00
49645;BME280;36494;50.730;-1.932;2023-04-30T07:18:37;101632.78;;;9.97;100.00
49645;BME280;36494;50.730;-1.932;2023-04-30T07:21:02;101632.32;;;9.94;100.00
49645;BME280;36494;50.730;-1.932;2023-04-30T07:23:27;101630.95;;;9.96;100.00
49645;BME280;36494;50.730;-1.932;2023-04-30T07:25:53;101630.51;;;10.06;100.00
49645;BME280;36494;50.730;-1.932;2023-04-30T07:28:19;101633.65;;;10.16;100.00
49645;BME280;36494;50.730;-1.932;2023-04-30T07:30:44;101626.86;;;10.18;100.00
49645;BME280;36494;50.730;-1.932;2023-04-30T07:33:10;101624.20;;;10.19;100.00
49645;BME280;36494;50.730;-1.932;2023-04-30T07:35:35;101624.31;;;10.22;100.00
49645;BME280;36494;50.730;-1.932;2023-04-30T07:38:01;101626.18;;;10.37;100.00
49645;BME280;36494;50.730;-1.932;2023-04-30T07:40:26;101625.95;;;10.36;100.00
49645;BME280;36494;50.730;-1.932;2023-04-30T07:42:52;101621.73;;;10.42;100.00
49645;BME280;36494;50.730;-1.932;2023-04-30T07:45:18;101626.30;;;10.56;100.00
49645;BME280;36494;50.730;-1.932;2023-04-30T07:47:43;101632.55;;;10.60;100.00
49645;BME280;36494;50.730;-1.932;2023-04-30T07:50:09;101633.19;;;10.70;100.00
49645;BME280;36494;50.730;-1.932;2023-04-30T07:52:34;101634.92;;;10.85;100.00
49645;BME280;36494;50.730;-1.932;2023-04-30T07:55:00;101634.14;;;10.92;100.00
49645;BME280;36494;50.730;-1.932;2023-04-30T07:57:25;101636.19;;;11.00;100.00
49645;BME280;36494;50.730;-1.932;2023-04-30T07:59:51;101637.04;;;11.05;100.00
49645;BME280;36494;50.730;-1.932;2023-04-30T08:02:16;101632.24;;;11.11;100.00
49645;BME280;36494;50.730;-1.932;2023-04-30T08:04:42;101629.63;;;11.20;100.00
49645;BME280;36494;50.730;-1.932;2023-04-30T08:07:07;101625.42;;;11.16;100.00
49645;BME280;36494;50.730;-1.932;2023-04-30T08:09:33;101628.30;;;11.11;100.00
49645;BME280;36494;50.730;-1.932;2023-04-30T08:11:59;101629.76;;;11.27;100.00
49645;BME280;36494;50.730;-1.932;2023-04-30T08:14:24;101630.70;;;11.20;100.00
49645;BME280;36494;50.730;-1.932;2023-04-30T08:16:50;101627.16;;;11.11;100.00
49645;BME280;36494;50.730;-1.932;2023-04-30T08:19:16;101630.94;;;11.11;100.00
49645;BME280;36494;50.730;-1.932;2023-04-30T08:21:42;101631.88;;;11.18;100.00
49645;BME280;36494;50.730;-1.932;2023-04-30T08:24:07;101627.93;;;10.97;100.00
49645;BME280;36494;50.730;-1.932;2023-04-30T08:26:32;101622.95;;;11.08;100.00
49645;BME280;36494;50.730;-1.932;2023-04-30T08:28:58;101623.73;;;10.96;100.00
49645;BME280;36494;50.730;-1.932;2023-04-30T08:31:23;101620.40;;;11.07;100.00
49645;BME280;36494;50.730;-1.932;2023-04-30T08:33:49;101622.81;;;11.05;100.00
49645;BME280;36494;50.730;-1.932;2023-04-30T08:36:14;101619.90;;;10.98;100.00
49645;BME280;36494;50.730;-1.932;2023-04-30T08:38:40;101625.65;;;11.17;100.00
49645;BME280;36494;50.730;-1.932;2023-04-30T08:41:10;101625.14;;;11.24;100.00
49645;BME280;36494;50.730;-1.932;2023-04-30T08:43:30;101626.33;;;11.29;100.00
49645;BME280;36494;50.730;-1.932;2023-04-30T08:45:56;101624.87;;;11.30;100.00
49645;BME280;36494;50.730;-1.932;2023-04-30T08:48:22;101625.57;;;11.26;100.00
49645;BME280;36494;50.730;-1.932;2023-04-30T08:50:46;101629.34;;;11.21;100.00
49645;BME280;36494;50.730;-1.932;2023-04-30T08:53:12;101631.24;;;11.32;100.00
49645;BME280;36494;50.730;-1.932;2023-04-30T08:55:38;101628.44;;;11.16;100.00
49645;BME280;36494;50.730;-1.932;2023-04-30T08:58:03;101630.08;;;11.17;100.00
49645;BME280;36494;50.730;-1.932;2023-04-30T09:00:28;101625.46;;;11.25;100.00
49645;BME280;36494;50.730;-1.932;2023-04-30T09:02:53;101627.99;;;11.10;100.00
49645;BME280;36494;50.730;-1.932;2023-04-30T09:05:19;101631.63;;;11.14;100.00
49645;BME280;36494;50.730;-1.932;2023-04-30T09:07:44;101632.80;;;10.99;100.00
49645;BME280;36494;50.730;-1.932;2023-04-30T09:10:14;101634.23;;;11.01;100.00
49645;BME280;36494;50.730;-1.932;2023-04-30T09:12:35;101633.02;;;11.14;100.00
49645;BME280;36494;50.730;-1.932;2023-04-30T09:15:02;101634.44;;;11.28;100.00
49645;BME280;36494;50.730;-1.932;2023-04-30T09:17:26;101633.76;;;11.25;100.00
49645;BME280;36494;50.730;-1.932;2023-04-30T09:19:51;101637.08;;;11.12;100.00
49645;BME280;36494;50.730;-1.932;2023-04-30T09:22:18;101636.91;;;11.06;100.00
49645;BME280;36494;50.730;-1.932;2023-04-30T09:24:45;101640.00;;;11.18;100.00
49645;BME280;36494;50.730;-1.932;2023-04-30T09:27:14;101640.74;;;11.36;100.00
49645;BME280;36494;50.730;-1.932;2023-04-30T09:29:36;101638.61;;;11.35;100.00
49645;BME280;36494;50.730;-1.932;2023-04-30T09:32:06;101635.88;;;11.19;100.00
49645;BME280;36494;50.730;-1.932;2023-04-30T09:34:32;101633.97;;;11.18;100.00
49645;BME280;36494;50.730;-1.932;2023-04-30T09:36:51;101633.33;;;11.13;100.00
49645;BME280;36494;50.730;-1.932;2023-04-30T09:39:15;101635.47;;;11.18;100.00
49645;BME280;36494;50.730;-1.932;2023-04-30T09:41:41;101634.56;;;11.11;100.00
49645;BME280;36494;50.730;-1.932;2023-04-30T09:44:06;101637.83;;;11.14;100.00
49645;BME280;36494;50.730;-1.932;2023-04-30T09:46:33;101636.87;;;11.28;100.00
49645;BME280;36494;50.730;-1.932;2023-04-30T09:48:58;101640.65;;;11.15;100.00
49645;BME280;36494;50.730;-1.932;2023-04-30T09:51:23;101637.81;;;11.30;100.00
49645;BME280;36494;50.730;-1.932;2023-04-30T09:53:50;101637.54;;;11.09;100.00
49645;BME280;36494;50.730;-1.932;2023-04-30T09:56:19;101637.88;;;11.12;100.00
49645;BME280;36494;50.730;-1.932;2023-04-30T09:58:43;101637.72;;;11.23;100.00
49645;BME280;36494;50.730;-1.932;2023-04-30T10:01:07;101636.51;;;11.17;100.00
49645;BME280;36494;50.730;-1.932;2023-04-30T10:03:31;101636.08;;;11.29;100.00
49645;BME280;36494;50.730;-1.932;2023-04-30T10:05:56;101634.95;;;11.28;100.00
49645;BME280;36494;50.730;-1.932;2023-04-30T10:08:26;101633.17;;;11.29;100.00
49645;BME280;36494;50.730;-1.932;2023-04-30T10:10:49;101631.87;;;11.38;100.00
49645;BME280;36494;50.730;-1.932;2023-04-30T10:13:14;101631.51;;;11.34;100.00
49645;BME280;36494;50.730;-1.932;2023-04-30T10:15:43;101628.87;;;11.49;100.00
49645;BME280;36494;50.730;-1.932;2023-04-30T10:18:05;101626.04;;;11.61;100.00
49645;BME280;36494;50.730;-1.932;2023-04-30T10:20:30;101628.87;;;11.51;100.00
49645;BME280;36494;50.730;-1.932;2023-04-30T10:22:54;101628.70;;;11.54;100.00
49645;BME280;36494;50.730;-1.932;2023-04-30T10:25:19;101626.94;;;11.59;100.00
49645;BME280;36494;50.730;-1.932;2023-04-30T10:27:45;101630.41;;;11.50;100.00
49645;BME280;36494;50.730;-1.932;2023-04-30T10:30:11;101630.63;;;11.60;100.00
49645;BME280;36494;50.730;-1.932;2023-04-30T10:32:40;101629.80;;;11.51;100.00
49645;BME280;36494;50.730;-1.932;2023-04-30T10:35:08;101626.70;;;11.64;100.00
49645;BME280;36494;50.730;-1.932;2023-04-30T10:37:33;101627.65;;;11.63;100.00
49645;BME280;36494;50.730;-1.932;2023-04-30T10:39:51;101628.20;;;11.75;100.00
49645;BME280;36494;50.730;-1.932;2023-04-30T10:42:17;101628.41;;;11.87;100.00
49645;BME280;36494;50.730;-1.932;2023-04-30T10:44:42;101627.21;;;11.67;100.00
49645;BME280;36494;50.730;-1.932;2023-04-30T10:47:08;101626.22;;;11.63;100.00
49645;BME280;36494;50.730;-1.932;2023-04-30T10:49:33;101628.00;;;11.63;100.00
49645;BME280;36494;50.730;-1.932;2023-04-30T10:51:59;101628.82;;;11.64;100.00
49645;BME280;36494;50.730;-1.932;2023-04-30T10:54:25;101629.64;;;11.68;100.00
49645;BME280;36494;50.730;-1.932;2023-04-30T10:56:50;101629.21;;;11.70;100.00
49645;BME280;36494;50.730;-1.932;2023-04-30T10:59:15;101626.49;;;11.87;100.00
49645;BME280;36494;50.730;-1.932;2023-04-30T11:01:54;101627.72;;;12.03;100.00
49645;BME280;36494;50.730;-1.932;2023-04-30T11:04:08;101624.69;;;12.01;100.00
49645;BME280;36494;50.730;-1.932;2023-04-30T11:06:53;101621.25;;;11.94;100.00
49645;BME280;36494;50.730;-1.932;2023-04-30T11:09:02;101619.21;;;11.83;100.00
49645;BME280;36494;50.730;-1.932;2023-04-30T11:11:22;101621.76;;;11.92;100.00
49645;BME280;36494;50.730;-1.932;2023-04-30T11:13:57;101618.74;;;11.96;100.00
49645;BME280;36494;50.730;-1.932;2023-04-30T11:16:15;101619.29;;;11.94;100.00
49645;BME280;36494;50.730;-1.932;2023-04-30T11:18:41;101617.10;;;11.77;100.00
49645;BME280;36494;50.730;-1.932;2023-04-30T11:21:04;101616.43;;;11.81;100.00
49645;BME280;36494;50.730;-1.932;2023-04-30T11:23:32;101615.07;;;11.63;100.00
49645;BME280;36494;50.730;-1.932;2023-04-30T11:25:55;101613.67;;;11.46;100.00
49645;BME280;36494;50.730;-1.932;2023-04-30T11:28:23;101611.35;;;11.30;100.00
49645;BME280;36494;50.730;-1.932;2023-04-30T11:30:50;101603.57;;;11.63;100.00
49645;BME280;36494;50.730;-1.932;2023-04-30T11:33:11;101600.40;;;11.61;100.00
49645;BME280;36494;50.730;-1.932;2023-04-30T11:35:37;101601.29;;;11.47;100.00
49645;BME280;36494;50.730;-1.932;2023-04-30T11:38:02;101599.11;;;11.58;100.00
49645;BME280;36494;50.730;-1.932;2023-04-30T11:40:26;101597.41;;;11.43;100.00
49645;BME280;36494;50.730;-1.932;2023-04-30T11:42:51;101594.27;;;11.45;100.00
49645;BME280;36494;50.730;-1.932;2023-04-30T11:45:17;101593.00;;;11.59;100.00
49645;BME280;36494;50.730;-1.932;2023-04-30T11:47:44;101592.60;;;11.84;100.00
49645;BME280;36494;50.730;-1.932;2023-04-30T11:50:10;101591.06;;;11.82;100.00
49645;BME280;36494;50.730;-1.932;2023-04-30T11:52:34;101592.48;;;11.79;100.00
49645;BME280;36494;50.730;-1.932;2023-04-30T11:54:59;101592.06;;;11.59;100.00
49645;BME280;36494;50.730;-1.932;2023-04-30T11:57:25;101591.91;;;11.66;100.00
49645;BME280;36494;50.730;-1.932;2023-04-30T11:59:50;101591.42;;;11.53;100.00
49645;BME280;36494;50.730;-1.932;2023-04-30T12:02:15;101591.87;;;11.72;100.00
49645;BME280;36494;50.730;-1.932;2023-04-30T12:04:42;101595.01;;;11.54;100.00
49645;BME280;36494;50.730;-1.932;2023-04-30T12:07:07;101591.63;;;11.61;100.00
49645;BME280;36494;50.730;-1.932;2023-04-30T12:09:32;101588.94;;;11.68;100.00
49645;BME280;36494;50.730;-1.932;2023-04-30T12:11:57;101588.69;;;11.40;100.00
49645;BME280;36494;50.730;-1.932;2023-04-30T12:14:24;101586.81;;;11.62;100.00
49645;BME280;36494;50.730;-1.932;2023-04-30T12:16:50;101586.41;;;11.74;100.00
49645;BME280;36494;50.730;-1.932;2023-04-30T12:19:14;101584.54;;;11.74;100.00
49645;BME280;36494;50.730;-1.932;2023-04-30T12:21:40;101580.28;;;11.90;100.00
49645;BME280;36494;50.730;-1.932;2023-04-30T12:24:03;101578.65;;;11.94;100.00
49645;BME280;36494;50.730;-1.932;2023-04-30T12:26:34;101577.20;;;11.88;100.00